sensor_id;sensor_type;location;lat;lon;timestamp;P1;durP1;ratioP1;P2;durP2;ratioP2
10863;SDS011;5485;37.558;126.950;2023-03-11T00:00:52;93.78;;;66.75;;
10863;SDS011;5485;37.558;126.950;2023-03-11T00:03:22;107.30;;;69.38;;
10863;SDS011;5485;37.558;126.950;2023-03-11T00:05:50;102.32;;;70.40;;
10863;SDS011;5485;37.558;126.950;2023-03-11T00:08:19;96.45;;;68.03;;
10863;SDS011;5485;37.558;126.950;2023-03-11T00:10:52;90.53;;;66.93;;
10863;SDS011;5485;37.558;126.950;2023-03-11T00:13:20;101.13;;;70.00;;
10863;SDS011;5485;37.558;126.950;2023-03-11T00:15:48;98.93;;;67.10;;
10863;SDS011;5485;37.558;126.950;2023-03-11T00:18:20;98.40;;;71.97;;
10863;SDS011;5485;37.558;126.950;2023-03-11T00:20:52;105.15;;;69.80;;
10863;SDS011;5485;37.558;126.950;2023-03-11T00:23:20;93.72;;;69.53;;
10863;SDS011;5485;37.558;126.950;2023-03-11T00:25:47;98.43;;;71.68;;
10863;SDS011;5485;37.558;126.950;2023-03-11T00:28:14;95.05;;;70.53;;
10863;SDS011;5485;37.558;126.950;2023-03-11T00:30:43;98.95;;;68.90;;
10863;SDS011;5485;37.558;126.950;2023-03-11T00:33:13;98.07;;;70.00;;
10863;SDS011;5485;37.558;126.950;2023-03-11T00:35:41;93.35;;;69.28;;
10863;SDS011;5485;37.558;126.950;2023-03-11T00:38:10;96.43;;;67.72;;
10863;SDS011;5485;37.558;126.950;2023-03-11T00:40:39;96.70;;;68.38;;
10863;SDS011;5485;37.558;126.950;2023-03-11T00:43:07;90.70;;;62.65;;
10863;SDS011;5485;37.558;126.950;2023-03-11T00:45:36;74.78;;;53.15;;
10863;SDS011;5485;37.558;126.950;2023-03-11T00:48:04;82.03;;;58.88;;
10863;SDS011;5485;37.558;126.950;2023-03-11T00:50:33;82.00;;;57.80;;
10863;SDS011;5485;37.558;126.950;2023-03-11T00:53:02;73.53;;;50.30;;
10863;SDS011;5485;37.558;126.950;2023-03-11T00:55:32;73.50;;;51.33;;
10863;SDS011;5485;37.558;126.950;2023-03-11T00:58:00;82.70;;;56.13;;
10863;SDS011;5485;37.558;126.950;2023-03-11T01:00:30;81.10;;;54.70;;
10863;SDS011;5485;37.558;126.950;2023-03-11T01:02:58;83.47;;;53.67;;
10863;SDS011;5485;37.558;126.950;2023-03-11T01:05:27;78.25;;;51.97;;
10863;SDS011;5485;37.558;126.950;2023-03-11T01:07:56;68.30;;;45.72;;
10863;SDS011;5485;37.558;126.950;2023-03-11T01:10:23;59.30;;;42.92;;
10863;SDS011;5485;37.558;126.950;2023-03-11T01:12:51;66.90;;;44.33;;
10863;SDS011;5485;37.558;126.950;2023-03-11T01:15:20;73.50;;;46.15;;
10863;SDS011;5485;37.558;126.950;2023-03-11T01:17:49;63.60;;;42.47;;
10863;SDS011;5485;37.558;126.950;2023-03-11T01:20:18;67.32;;;39.33;;
10863;SDS011;5485;37.558;126.950;2023-03-11T01:22:45;59.30;;;37.63;;
10863;SDS011;5485;37.558;126.950;2023-03-11T01:25:16;58.63;;;38.58;;
10863;SDS011;5485;37.558;126.950;2023-03-11T01:27:44;55.88;;;38.95;;
10863;SDS011;5485;37.558;126.950;2023-03-11T01:30:13;73.05;;;41.00;;
10863;SDS011;5485;37.558;126.950;2023-03-11T01:32:44;60.55;;;39.55;;
10863;SDS011;5485;37.558;126.950;2023-03-11T01:35:11;61.67;;;38.45;;
10863;SDS011;5485;37.558;126.950;2023-03-11T01:37:39;63.25;;;39.25;;
10863;SDS011;5485;37.558;126.950;2023-03-11T01:40:07;54.60;;;37.67;;
10863;SDS011;5485;37.558;126.950;2023-03-11T01:42:39;62.75;;;35.90;;
10863;SDS011;5485;37.558;126.950;2023-03-11T01:48:16;60.58;;;34.78;;
10863;SDS011;5485;37.558;126.950;2023-03-11T01:50:44;55.40;;;31.73;;
10863;SDS011;5485;37.558;126.950;2023-03-11T01:53:14;54.40;;;31.60;;
10863;SDS011;5485;37.558;126.950;2023-03-11T01:55:45;49.42;;;30.40;;
10863;SDS011;5485;37.558;126.950;2023-03-11T01:58:20;46.15;;;27.55;;
10863;SDS011;5485;37.558;126.950;2023-03-11T02:00:49;51.63;;;27.08;;
10863;SDS011;5485;37.558;126.950;2023-03-11T02:03:35;50.65;;;27.67;;
10863;SDS011;5485;37.558;126.950;2023-03-11T02:06:08;49.92;;;28.35;;
10863;SDS011;5485;37.558;126.950;2023-03-11T02:08:39;51.20;;;27.77;;
10863;SDS011;5485;37.558;126.950;2023-03-11T02:11:08;52.55;;;29.38;;
10863;SDS011;5485;37.558;126.950;2023-03-11T02:13:37;49.92;;;28.75;;
10863;SDS011;5485;37.558;126.950;2023-03-11T02:16:06;52.15;;;29.55;;
10863;SDS011;5485;37.558;126.950;2023-03-11T02:18:33;42.08;;;27.65;;
10863;SDS011;5485;37.558;126.950;2023-03-11T02:26:57;46.58;;;27.52;;
10863;SDS011;5485;37.558;126.950;2023-03-11T02:29:31;41.63;;;26.55;;
10863;SDS011;5485;37.558;126.950;2023-03-11T02:31:59;47.78;;;27.30;;
10863;SDS011;5485;37.558;126.950;2023-03-11T02:34:30;42.22;;;25.13;;
10863;SDS011;5485;37.558;126.950;2023-03-11T02:36:59;40.88;;;26.27;;
10863;SDS011;5485;37.558;126.950;2023-03-11T02:39:29;56.42;;;26.13;;
10863;SDS011;5485;37.558;126.950;2023-03-11T02:42:01;39.83;;;24.92;;
10863;SDS011;5485;37.558;126.950;2023-03-11T02:44:32;42.42;;;24.15;;
10863;SDS011;5485;37.558;126.950;2023-03-11T02:47:01;44.25;;;23.52;;
10863;SDS011;5485;37.558;126.950;2023-03-11T02:49:30;38.38;;;22.17;;
10863;SDS011;5485;37.558;126.950;2023-03-11T02:52:01;41.30;;;21.90;;
10863;SDS011;5485;37.558;126.950;2023-03-11T02:54:29;35.60;;;21.25;;
10863;SDS011;5485;37.558;126.950;2023-03-11T02:56:56;38.50;;;21.33;;
10863;SDS011;5485;37.558;126.950;2023-03-11T02:59:22;42.65;;;21.77;;
10863;SDS011;5485;37.558;126.950;2023-03-11T03:01:52;33.25;;;22.27;;
10863;SDS011;5485;37.558;126.950;2023-03-11T03:04:19;38.92;;;22.73;;
10863;SDS011;5485;37.558;126.950;2023-03-11T03:06:49;40.33;;;23.52;;
10863;SDS011;5485;37.558;126.950;2023-03-11T03:09:19;50.60;;;24.10;;
10863;SDS011;5485;37.558;126.950;2023-03-11T03:11:46;45.80;;;24.13;;
10863;SDS011;5485;37.558;126.950;2023-03-11T03:14:12;45.45;;;22.42;;
10863;SDS011;5485;37.558;126.950;2023-03-11T03:16:39;49.78;;;23.38;;
10863;SDS011;5485;37.558;126.950;2023-03-11T03:19:06;37.95;;;21.35;;
10863;SDS011;5485;37.558;126.950;2023-03-11T03:21:33;47.53;;;22.58;;
10863;SDS011;5485;37.558;126.950;2023-03-11T03:24:00;34.05;;;19.00;;
10863;SDS011;5485;37.558;126.950;2023-03-11T03:26:28;40.28;;;20.02;;
10863;SDS011;5485;37.558;126.950;2023-03-11T03:28:54;44.30;;;19.02;;
10863;SDS011;5485;37.558;126.950;2023-03-11T03:31:21;38.80;;;19.73;;
10863;SDS011;5485;37.558;126.950;2023-03-11T03:33:48;35.80;;;17.02;;
10863;SDS011;5485;37.558;126.950;2023-03-11T03:36:18;30.20;;;17.58;;
10863;SDS011;5485;37.558;126.950;2023-03-11T03:38:45;32.63;;;17.02;;
10863;SDS011;5485;37.558;126.950;2023-03-11T03:41:12;38.65;;;17.17;;
10863;SDS011;5485;37.558;126.950;2023-03-11T03:43:40;40.70;;;17.08;;
10863;SDS011;5485;37.558;126.950;2023-03-11T03:46:07;40.05;;;17.25;;
10863;SDS011;5485;37.558;126.950;2023-03-11T03:48:34;41.30;;;16.77;;
10863;SDS011;5485;37.558;126.950;2023-03-11T03:51:02;34.15;;;20.80;;
10863;SDS011;5485;37.558;126.950;2023-03-11T03:53:30;37.30;;;17.67;;
10863;SDS011;5485;37.558;126.950;2023-03-11T03:56:02;35.95;;;20.02;;
10863;SDS011;5485;37.558;126.950;2023-03-11T03:58:31;35.50;;;17.27;;
10863;SDS011;5485;37.558;126.950;2023-03-11T04:01:04;27.48;;;16.30;;
10863;SDS011;5485;37.558;126.950;2023-03-11T04:03:33;32.00;;;14.40;;
10863;SDS011;5485;37.558;126.950;2023-03-11T04:06:20;31.10;;;13.88;;
10863;SDS011;5485;37.558;126.950;2023-03-11T04:08:51;34.05;;;13.40;;
10863;SDS011;5485;37.558;126.950;2023-03-11T04:11:19;31.95;;;13.60;;
10863;SDS011;5485;37.558;126.950;2023-03-11T04:13:47;31.05;;;14.07;;
10863;SDS011;5485;37.558;126.950;2023-03-11T04:16:15;26.42;;;14.05;;
10863;SDS011;5485;37.558;126.950;2023-03-11T04:18:46;25.25;;;12.95;;
10863;SDS011;5485;37.558;126.950;2023-03-11T04:21:13;34.58;;;14.20;;
10863;SDS011;5485;37.558;126.950;2023-03-11T04:23:41;30.63;;;13.63;;
10863;SDS011;5485;37.558;126.950;2023-03-11T04:26:08;25.35;;;13.60;;
10863;SDS011;5485;37.558;126.950;2023-03-11T04:28:35;26.45;;;13.35;;
10863;SDS011;5485;37.558;126.950;2023-03-11T04:31:02;23.38;;;13.30;;
10863;SDS011;5485;37.558;126.950;2023-03-11T04:33:30;32.03;;;13.50;;
10863;SDS011;5485;37.558;126.950;2023-03-11T04:35:57;23.55;;;12.70;;
10863;SDS011;5485;37.558;126.950;2023-03-11T04:38:27;35.63;;;13.25;;
10863;SDS011;5485;37.558;126.950;2023-03-11T04:40:58;34.58;;;13.73;;
10863;SDS011;5485;37.558;126.950;2023-03-11T04:43:26;28.67;;;12.05;;
10863;SDS011;5485;37.558;126.950;2023-03-11T04:45:53;27.42;;;13.27;;
10863;SDS011;5485;37.558;126.950;2023-03-11T04:48:22;23.88;;;12.70;;
10863;SDS011;5485;37.558;126.950;2023-03-11T04:50:51;32.03;;;13.93;;
10863;SDS011;5485;37.558;126.950;2023-03-11T04:53:20;31.70;;;12.95;;
10863;SDS011;5485;37.558;126.950;2023-03-11T04:55:47;28.10;;;13.77;;
10863;SDS011;5485;37.558;126.950;2023-03-11T04:58:15;29.15;;;14.52;;
10863;SDS011;5485;37.558;126.950;2023-03-11T05:00:42;25.77;;;13.82;;
10863;SDS011;5485;37.558;126.950;2023-03-11T05:03:08;25.20;;;13.60;;
10863;SDS011;5485;37.558;126.950;2023-03-11T05:05:36;27.25;;;13.77;;
10863;SDS011;5485;37.558;126.950;2023-03-11T05:08:04;25.75;;;14.25;;
10863;SDS011;5485;37.558;126.950;2023-03-11T05:10:31;32.78;;;15.48;;
10863;SDS011;5485;37.558;126.950;2023-03-11T05:12:58;22.88;;;13.35;;
10863;SDS011;5485;37.558;126.950;2023-03-11T05:15:25;29.38;;;13.73;;
10863;SDS011;5485;37.558;126.950;2023-03-11T05:17:53;27.63;;;14.15;;
10863;SDS011;5485;37.558;126.950;2023-03-11T05:20:20;31.10;;;14.98;;
10863;SDS011;5485;37.558;126.950;2023-03-11T05:22:47;27.17;;;13.43;;
10863;SDS011;5485;37.558;126.950;2023-03-11T05:25:14;29.20;;;15.05;;
10863;SDS011;5485;37.558;126.950;2023-03-11T05:27:41;33.67;;;14.30;;
10863;SDS011;5485;37.558;126.950;2023-03-11T05:30:08;26.17;;;14.10;;
10863;SDS011;5485;37.558;126.950;2023-03-11T05:32:35;26.80;;;14.05;;
10863;SDS011;5485;37.558;126.950;2023-03-11T05:35:02;29.80;;;14.15;;
10863;SDS011;5485;37.558;126.950;2023-03-11T05:37:32;25.77;;;13.60;;
10863;SDS011;5485;37.558;126.950;2023-03-11T05:39:59;27.35;;;13.20;;
10863;SDS011;5485;37.558;126.950;2023-03-11T05:42:31;25.75;;;12.88;;
10863;SDS011;5485;37.558;126.950;2023-03-11T05:45:01;30.92;;;13.23;;
10863;SDS011;5485;37.558;126.950;2023-03-11T05:47:28;23.38;;;11.88;;
10863;SDS011;5485;37.558;126.950;2023-03-11T05:49:55;34.88;;;13.27;;
10863;SDS011;5485;37.558;126.950;2023-03-11T05:52:21;27.15;;;12.55;;
10863;SDS011;5485;37.558;126.950;2023-03-11T05:54:50;29.08;;;12.25;;
10863;SDS011;5485;37.558;126.950;2023-03-11T05:57:19;23.15;;;12.43;;
10863;SDS011;5485;37.558;126.950;2023-03-11T05:59:46;21.05;;;12.23;;
10863;SDS011;5485;37.558;126.950;2023-03-11T06:02:13;28.00;;;14.23;;
10863;SDS011;5485;37.558;126.950;2023-03-11T06:04:39;27.08;;;12.32;;
10863;SDS011;5485;37.558;126.950;2023-03-11T06:07:06;25.83;;;14.20;;
10863;SDS011;5485;37.558;126.950;2023-03-11T06:09:36;26.92;;;13.38;;
10863;SDS011;5485;37.558;126.950;2023-03-11T06:12:03;26.40;;;13.60;;
10863;SDS011;5485;37.558;126.950;2023-03-11T06:14:30;30.10;;;14.73;;
10863;SDS011;5485;37.558;126.950;2023-03-11T06:16:57;24.10;;;14.65;;
10863;SDS011;5485;37.558;126.950;2023-03-11T06:19:24;34.45;;;14.70;;
10863;SDS011;5485;37.558;126.950;2023-03-11T06:21:51;29.63;;;14.80;;
10863;SDS011;5485;37.558;126.950;2023-03-11T06:24:18;31.75;;;14.98;;
10863;SDS011;5485;37.558;126.950;2023-03-11T06:26:45;30.92;;;15.25;;
10863;SDS011;5485;37.558;126.950;2023-03-11T06:29:15;35.30;;;15.65;;
10863;SDS011;5485;37.558;126.950;2023-03-11T06:31:42;35.53;;;15.18;;
10863;SDS011;5485;37.558;126.950;2023-03-11T06:34:09;31.10;;;16.08;;
10863;SDS011;5485;37.558;126.950;2023-03-11T06:36:37;28.60;;;16.27;;
10863;SDS011;5485;37.558;126.950;2023-03-11T06:39:04;33.10;;;17.25;;
10863;SDS011;5485;37.558;126.950;2023-03-11T06:41:34;35.80;;;17.80;;
10863;SDS011;5485;37.558;126.950;2023-03-11T06:44:00;29.77;;;17.30;;
10863;SDS011;5485;37.558;126.950;2023-03-11T06:46:28;35.85;;;17.25;;
10863;SDS011;5485;37.558;126.950;2023-03-11T06:48:55;30.70;;;16.77;;
10863;SDS011;5485;37.558;126.950;2023-03-11T06:51:22;34.38;;;18.90;;
10863;SDS011;5485;37.558;126.950;2023-03-11T06:53:50;34.42;;;19.23;;
10863;SDS011;5485;37.558;126.950;2023-03-11T06:56:19;41.05;;;20.92;;
10863;SDS011;5485;37.558;126.950;2023-03-11T06:58:47;34.63;;;20.83;;
10863;SDS011;5485;37.558;126.950;2023-03-11T07:01:15;37.40;;;19.63;;
10863;SDS011;5485;37.558;126.950;2023-03-11T07:03:47;44.65;;;22.17;;
10863;SDS011;5485;37.558;126.950;2023-03-11T07:06:18;40.40;;;23.75;;
10863;SDS011;5485;37.558;126.950;2023-03-11T07:08:47;38.50;;;23.02;;
10863;SDS011;5485;37.558;126.950;2023-03-11T07:11:19;36.60;;;22.92;;
10863;SDS011;5485;37.558;126.950;2023-03-11T07:13:48;33.45;;;21.67;;
10863;SDS011;5485;37.558;126.950;2023-03-11T07:16:16;40.65;;;22.50;;
10863;SDS011;5485;37.558;126.950;2023-03-11T07:18:45;36.72;;;23.52;;
10863;SDS011;5485;37.558;126.950;2023-03-11T07:21:14;45.47;;;24.17;;
10863;SDS011;5485;37.558;126.950;2023-03-11T07:23:43;38.08;;;23.65;;
10863;SDS011;5485;37.558;126.950;2023-03-11T07:26:11;44.85;;;23.13;;
10863;SDS011;5485;37.558;126.950;2023-03-11T07:28:44;47.65;;;24.27;;
10863;SDS011;5485;37.558;126.950;2023-03-11T07:31:27;43.65;;;24.02;;
10863;SDS011;5485;37.558;126.950;2023-03-11T07:33:56;42.20;;;25.65;;
10863;SDS011;5485;37.558;126.950;2023-03-11T07:36:24;47.53;;;25.52;;
10863;SDS011;5485;37.558;126.950;2023-03-11T07:38:56;50.00;;;26.73;;
10863;SDS011;5485;37.558;126.950;2023-03-11T07:41:24;56.03;;;28.38;;
10863;SDS011;5485;37.558;126.950;2023-03-11T07:43:56;48.10;;;29.15;;
10863;SDS011;5485;37.558;126.950;2023-03-11T07:46:24;52.03;;;28.98;;
10863;SDS011;5485;37.558;126.950;2023-03-11T07:48:52;50.90;;;29.52;;
10863;SDS011;5485;37.558;126.950;2023-03-11T07:51:21;51.55;;;31.27;;
10863;SDS011;5485;37.558;126.950;2023-03-11T07:53:50;48.88;;;31.17;;
10863;SDS011;5485;37.558;126.950;2023-03-11T07:56:19;50.90;;;31.65;;
10863;SDS011;5485;37.558;126.950;2023-03-11T07:58:48;53.78;;;31.77;;
10863;SDS011;5485;37.558;126.950;2023-03-11T08:01:22;58.30;;;30.23;;
10863;SDS011;5485;37.558;126.950;2023-03-11T08:03:51;50.70;;;30.85;;
10863;SDS011;5485;37.558;126.950;2023-03-11T08:06:24;45.67;;;29.50;;
10863;SDS011;5485;37.558;126.950;2023-03-11T08:08:53;43.63;;;30.05;;
10863;SDS011;5485;37.558;126.950;2023-03-11T08:11:20;48.88;;;30.40;;
10863;SDS011;5485;37.558;126.950;2023-03-11T08:13:47;45.40;;;28.88;;
10863;SDS011;5485;37.558;126.950;2023-03-11T08:16:16;50.00;;;29.17;;
10863;SDS011;5485;37.558;126.950;2023-03-11T08:18:47;53.75;;;28.35;;
10863;SDS011;5485;37.558;126.950;2023-03-11T08:21:16;49.55;;;28.70;;
10863;SDS011;5485;37.558;126.950;2023-03-11T08:23:48;46.00;;;28.38;;
10863;SDS011;5485;37.558;126.950;2023-03-11T08:26:19;54.35;;;29.83;;
10863;SDS011;5485;37.558;126.950;2023-03-11T08:28:47;54.95;;;27.70;;
10863;SDS011;5485;37.558;126.950;2023-03-11T08:31:18;43.30;;;27.85;;
10863;SDS011;5485;37.558;126.950;2023-03-11T08:33:49;52.22;;;26.20;;
10863;SDS011;5485;37.558;126.950;2023-03-11T08:36:19;51.25;;;26.98;;
10863;SDS011;5485;37.558;126.950;2023-03-11T08:38:46;52.10;;;26.08;;
10863;SDS011;5485;37.558;126.950;2023-03-11T08:41:15;43.55;;;26.05;;
10863;SDS011;5485;37.558;126.950;2023-03-11T08:43:42;49.03;;;26.23;;
10863;SDS011;5485;37.558;126.950;2023-03-11T08:46:09;41.70;;;27.10;;
10863;SDS011;5485;37.558;126.950;2023-03-11T08:48:45;40.75;;;26.42;;
10863;SDS011;5485;37.558;126.950;2023-03-11T08:51:12;38.60;;;25.33;;
10863;SDS011;5485;37.558;126.950;2023-03-11T08:53:41;49.33;;;27.60;;
10863;SDS011;5485;37.558;126.950;2023-03-11T08:56:08;54.63;;;27.83;;
10863;SDS011;5485;37.558;126.950;2023-03-11T08:58:35;48.83;;;27.20;;
10863;SDS011;5485;37.558;126.950;2023-03-11T09:01:04;45.55;;;27.77;;
10863;SDS011;5485;37.558;126.950;2023-03-11T09:03:33;46.60;;;25.58;;
10863;SDS011;5485;37.558;126.950;2023-03-11T09:06:02;47.53;;;29.27;;
10863;SDS011;5485;37.558;126.950;2023-03-11T09:08:30;54.05;;;30.15;;
10863;SDS011;5485;37.558;126.950;2023-03-11T09:10:57;40.20;;;27.77;;
10863;SDS011;5485;37.558;126.950;2023-03-11T09:13:24;46.47;;;29.45;;
10863;SDS011;5485;37.558;126.950;2023-03-11T09:15:51;43.20;;;27.98;;
10863;SDS011;5485;37.558;126.950;2023-03-11T09:18:18;53.33;;;29.17;;
10863;SDS011;5485;37.558;126.950;2023-03-11T09:20:45;45.53;;;27.20;;
10863;SDS011;5485;37.558;126.950;2023-03-11T09:23:13;48.55;;;28.08;;
10863;SDS011;5485;37.558;126.950;2023-03-11T09:25:41;45.08;;;25.70;;
10863;SDS011;5485;37.558;126.950;2023-03-11T09:28:09;40.42;;;24.75;;
10863;SDS011;5485;37.558;126.950;2023-03-11T09:30:36;45.45;;;24.90;;
10863;SDS011;5485;37.558;126.950;2023-03-11T09:33:03;47.15;;;25.35;;
10863;SDS011;5485;37.558;126.950;2023-03-11T09:35:30;43.90;;;24.83;;
10863;SDS011;5485;37.558;126.950;2023-03-11T09:37:59;41.33;;;23.98;;
10863;SDS011;5485;37.558;126.950;2023-03-11T09:40:27;44.35;;;25.92;;
10863;SDS011;5485;37.558;126.950;2023-03-11T09:43:15;45.88;;;25.50;;
10863;SDS011;5485;37.558;126.950;2023-03-11T09:48:52;50.42;;;27.52;;
10863;SDS011;5485;37.558;126.950;2023-03-11T09:51:30;46.10;;;28.02;;
10863;SDS011;5485;37.558;126.950;2023-03-11T09:54:05;48.55;;;30.15;;
10863;SDS011;5485;37.558;126.950;2023-03-11T09:56:35;38.47;;;27.98;;
10863;SDS011;5485;37.558;126.950;2023-03-11T09:59:05;49.53;;;30.27;;
10863;SDS011;5485;37.558;126.950;2023-03-11T10:01:42;46.22;;;30.25;;
10863;SDS011;5485;37.558;126.950;2023-03-11T10:04:35;47.70;;;29.85;;
10863;SDS011;5485;37.558;126.950;2023-03-11T10:07:08;49.90;;;29.98;;
10863;SDS011;5485;37.558;126.950;2023-03-11T10:09:53;51.38;;;31.10;;
10863;SDS011;5485;37.558;126.950;2023-03-11T10:15:35;48.53;;;30.60;;
10863;SDS011;5485;37.558;126.950;2023-03-11T10:21:24;53.92;;;32.28;;
10863;SDS011;5485;37.558;126.950;2023-03-11T10:26:57;49.28;;;29.95;;
10863;SDS011;5485;37.558;126.950;2023-03-11T10:29:29;46.35;;;30.67;;
10863;SDS011;5485;37.558;126.950;2023-03-11T10:32:08;49.35;;;31.50;;
10863;SDS011;5485;37.558;126.950;2023-03-11T10:34:51;58.42;;;33.58;;
10863;SDS011;5485;37.558;126.950;2023-03-11T10:39:54;57.88;;;34.28;;
10863;SDS011;5485;37.558;126.950;2023-03-11T10:42:30;52.55;;;33.50;;
10863;SDS011;5485;37.558;126.950;2023-03-11T10:44:58;52.60;;;34.42;;
10863;SDS011;5485;37.558;126.950;2023-03-11T10:47:25;50.60;;;33.42;;
10863;SDS011;5485;37.558;126.950;2023-03-11T10:49:53;53.17;;;33.65;;
10863;SDS011;5485;37.558;126.950;2023-03-11T10:52:20;50.42;;;32.55;;
10863;SDS011;5485;37.558;126.950;2023-03-11T10:54:48;52.88;;;33.88;;
10863;SDS011;5485;37.558;126.950;2023-03-11T10:57:31;53.25;;;33.35;;
10863;SDS011;5485;37.558;126.950;2023-03-11T11:00:03;56.47;;;33.35;;
10863;SDS011;5485;37.558;126.950;2023-03-11T11:02:52;54.92;;;32.85;;
10863;SDS011;5485;37.558;126.950;2023-03-11T11:13:25;61.22;;;34.75;;
10863;SDS011;5485;37.558;126.950;2023-03-11T11:18:47;54.15;;;34.85;;
10863;SDS011;5485;37.558;126.950;2023-03-11T11:21:35;54.10;;;34.17;;
10863;SDS011;5485;37.558;126.950;2023-03-11T11:29:36;58.22;;;36.17;;
10863;SDS011;5485;37.558;126.950;2023-03-11T11:34:41;57.83;;;37.45;;
10863;SDS011;5485;37.558;126.950;2023-03-11T11:37:17;52.88;;;35.33;;
10863;SDS011;5485;37.558;126.950;2023-03-11T11:39:49;58.42;;;37.08;;
10863;SDS011;5485;37.558;126.950;2023-03-11T11:42:23;57.40;;;35.42;;
10863;SDS011;5485;37.558;126.950;2023-03-11T11:45:03;57.05;;;37.00;;
10863;SDS011;5485;37.558;126.950;2023-03-11T11:47:38;53.10;;;35.03;;
10863;SDS011;5485;37.558;126.950;2023-03-11T11:50:17;54.15;;;35.97;;
10863;SDS011;5485;37.558;126.950;2023-03-11T11:53:00;55.50;;;35.15;;
10863;SDS011;5485;37.558;126.950;2023-03-11T11:55:39;61.17;;;37.95;;
10863;SDS011;5485;37.558;126.950;2023-03-11T11:58:11;64.43;;;39.17;;
10863;SDS011;5485;37.558;126.950;2023-03-11T12:00:45;63.67;;;41.97;;
10863;SDS011;5485;37.558;126.950;2023-03-11T12:03:29;58.78;;;39.17;;
10863;SDS011;5485;37.558;126.950;2023-03-11T12:06:26;60.60;;;37.78;;
10863;SDS011;5485;37.558;126.950;2023-03-11T12:12:13;67.70;;;39.05;;
10863;SDS011;5485;37.558;126.950;2023-03-11T12:14:57;65.85;;;38.38;;
10863;SDS011;5485;37.558;126.950;2023-03-11T12:17:32;62.70;;;37.53;;
10863;SDS011;5485;37.558;126.950;2023-03-11T12:30:38;62.88;;;38.67;;
10863;SDS011;5485;37.558;126.950;2023-03-11T12:33:13;53.80;;;36.17;;
10863;SDS011;5485;37.558;126.950;2023-03-11T12:36:02;52.53;;;37.47;;
10863;SDS011;5485;37.558;126.950;2023-03-11T12:38:46;64.20;;;37.42;;
10863;SDS011;5485;37.558;126.950;2023-03-11T12:49:26;58.17;;;37.42;;
10863;SDS011;5485;37.558;126.950;2023-03-11T12:54:36;58.88;;;34.42;;
10863;SDS011;5485;37.558;126.950;2023-03-11T13:16:43;55.28;;;34.78;;
10863;SDS011;5485;37.558;126.950;2023-03-11T13:22:04;59.83;;;37.95;;
10863;SDS011;5485;37.558;126.950;2023-03-11T13:24:51;56.97;;;36.78;;
10863;SDS011;5485;37.558;126.950;2023-03-11T13:27:37;59.67;;;37.92;;
10863;SDS011;5485;37.558;126.950;2023-03-11T13:30:10;52.50;;;37.22;;
10863;SDS011;5485;37.558;126.950;2023-03-11T13:41:00;56.97;;;37.75;;
10863;SDS011;5485;37.558;126.950;2023-03-11T13:43:27;57.25;;;37.95;;
10863;SDS011;5485;37.558;126.950;2023-03-11T13:51:30;51.58;;;37.60;;
10863;SDS011;5485;37.558;126.950;2023-03-11T13:56:37;55.75;;;39.60;;
10863;SDS011;5485;37.558;126.950;2023-03-11T14:04:47;60.20;;;40.05;;
10863;SDS011;5485;37.558;126.950;2023-03-11T14:07:25;62.72;;;40.03;;
10863;SDS011;5485;37.558;126.950;2023-03-11T14:12:41;63.13;;;41.22;;
10863;SDS011;5485;37.558;126.950;2023-03-11T14:15:12;54.75;;;38.78;;
10863;SDS011;5485;37.558;126.950;2023-03-11T14:17:42;59.75;;;39.05;;
10863;SDS011;5485;37.558;126.950;2023-03-11T14:20:16;61.25;;;39.72;;
10863;SDS011;5485;37.558;126.950;2023-03-11T14:22:49;56.33;;;39.72;;
10863;SDS011;5485;37.558;126.950;2023-03-11T14:25:22;69.38;;;40.60;;
10863;SDS011;5485;37.558;126.950;2023-03-11T14:27:52;59.78;;;40.63;;
10863;SDS011;5485;37.558;126.950;2023-03-11T14:30:22;58.25;;;39.72;;
10863;SDS011;5485;37.558;126.950;2023-03-11T14:33:17;63.90;;;40.35;;
10863;SDS011;5485;37.558;126.950;2023-03-11T14:35:53;67.57;;;39.53;;
10863;SDS011;5485;37.558;126.950;2023-03-11T14:38:22;60.95;;;39.72;;
10863;SDS011;5485;37.558;126.950;2023-03-11T14:40:52;61.50;;;40.42;;
10863;SDS011;5485;37.558;126.950;2023-03-11T14:43:22;56.67;;;41.10;;
10863;SDS011;5485;37.558;126.950;2023-03-11T14:45:50;64.90;;;40.67;;
10863;SDS011;5485;37.558;126.950;2023-03-11T14:50:52;61.88;;;40.78;;
10863;SDS011;5485;37.558;126.950;2023-03-11T14:53:32;61.08;;;42.78;;
10863;SDS011;5485;37.558;126.950;2023-03-11T14:56:15;59.92;;;40.50;;
10863;SDS011;5485;37.558;126.950;2023-03-11T14:58:52;55.75;;;40.40;;
10863;SDS011;5485;37.558;126.950;2023-03-11T15:01:29;62.58;;;41.92;;
10863;SDS011;5485;37.558;126.950;2023-03-11T15:06:38;61.88;;;40.17;;
10863;SDS011;5485;37.558;126.950;2023-03-11T15:11:47;65.35;;;41.17;;
10863;SDS011;5485;37.558;126.950;2023-03-11T15:14:19;57.08;;;38.95;;
10863;SDS011;5485;37.558;126.950;2023-03-11T15:16:49;52.55;;;38.95;;
10863;SDS011;5485;37.558;126.950;2023-03-11T15:21:53;61.15;;;38.35;;
10863;SDS011;5485;37.558;126.950;2023-03-11T15:24:27;56.53;;;35.58;;
10863;SDS011;5485;37.558;126.950;2023-03-11T15:29:26;57.13;;;37.05;;
10863;SDS011;5485;37.558;126.950;2023-03-11T15:31:54;56.97;;;37.38;;
10863;SDS011;5485;37.558;126.950;2023-03-11T15:34:25;62.25;;;34.95;;
10863;SDS011;5485;37.558;126.950;2023-03-11T15:39:26;49.45;;;34.05;;
10863;SDS011;5485;37.558;126.950;2023-03-11T15:44:41;55.20;;;35.03;;
10863;SDS011;5485;37.558;126.950;2023-03-11T15:47:15;55.75;;;34.72;;
10863;SDS011;5485;37.558;126.950;2023-03-11T15:49:44;59.08;;;35.95;;
10863;SDS011;5485;37.558;126.950;2023-03-11T15:52:11;58.60;;;36.78;;
10863;SDS011;5485;37.558;126.950;2023-03-11T15:54:39;57.55;;;37.40;;
10863;SDS011;5485;37.558;126.950;2023-03-11T15:57:07;55.53;;;39.45;;
10863;SDS011;5485;37.558;126.950;2023-03-11T15:59:40;60.78;;;38.53;;
10863;SDS011;5485;37.558;126.950;2023-03-11T16:02:18;55.38;;;38.67;;
10863;SDS011;5485;37.558;126.950;2023-03-11T16:04:48;69.70;;;40.63;;
10863;SDS011;5485;37.558;126.950;2023-03-11T16:07:19;58.42;;;39.85;;
10863;SDS011;5485;37.558;126.950;2023-03-11T16:09:46;60.55;;;40.90;;
10863;SDS011;5485;37.558;126.950;2023-03-11T16:12:20;62.00;;;41.83;;
10863;SDS011;5485;37.558;126.950;2023-03-11T16:14:49;68.97;;;43.55;;
10863;SDS011;5485;37.558;126.950;2023-03-11T16:17:16;58.53;;;39.28;;
10863;SDS011;5485;37.558;126.950;2023-03-11T16:19:44;64.28;;;43.35;;
10863;SDS011;5485;37.558;126.950;2023-03-11T16:22:17;63.80;;;41.60;;
10863;SDS011;5485;37.558;126.950;2023-03-11T16:24:47;62.15;;;42.05;;
10863;SDS011;5485;37.558;126.950;2023-03-11T16:27:16;62.35;;;42.95;;
10863;SDS011;5485;37.558;126.950;2023-03-11T16:29:43;69.75;;;41.80;;
10863;SDS011;5485;37.558;126.950;2023-03-11T16:32:11;62.75;;;42.60;;
10863;SDS011;5485;37.558;126.950;2023-03-11T16:34:38;59.53;;;41.90;;
10863;SDS011;5485;37.558;126.950;2023-03-11T16:37:05;61.13;;;42.60;;
10863;SDS011;5485;37.558;126.950;2023-03-11T16:39:33;62.28;;;43.60;;